Startpagina
METAR-TAF:

METAR-TAF

Vliegvelden :

San Antonio del Táchira, Venezuela

breedte: 07-51N, lengte: 072-27W, hoogte: 377 m

METAR: ontbreekt

Tijdstip: 20:34 (00:34 UTC)

Verwachting

Dit bericht is 2 uur en het 34 minuten geleden gemaakt, om 22:00 UTC
Verwachting geldig van 16 om 00 UTC tot 17 om 00 UTC
Wind 3 kt uit het zuidoosten
Zicht 10 km of meer
Verspreide wolken op 2000 ft
Wijzigt naar
van 16 om 00 UTC tot 16 om 06 UTC
Wind kt uit het noorden
Weinig wolken op 2000 ft

TAF: SVSA 152200Z 1600/1700 14003KT 9999 SCT020 TX33/1900Z TN22/0800Z BECMG 1600/1606 00000KT FEW020

Waarnemingen en weersverwachtingen van meer dan 4000 vliegvelden (METAR en TAF).

De beschikbare stations zijn de gele en rode punten op de kaart.

Ga met uw muis naar het station om de naam te zien.

Klik dan om waarnemingen en weersverwachtingen te zien.

kaart wijzigen: klik op de groene knoppen met een zwart kruis om in te zoomen, op de groene knop met een streepje om uit te zoomen of op de groene pijlen voor aangrenzende kaarten.


METAR-TAF: